createdAt,value
2023-05-08T00:01:09.465Z,8.78
2023-05-08T00:02:09.475Z,8.78
2023-05-08T00:04:09.710Z,8.78
2023-05-08T00:05:09.514Z,8.78
2023-05-08T00:07:09.465Z,8.94
2023-05-08T00:08:09.464Z,8.78
2023-05-08T00:10:09.453Z,8.94
2023-05-08T00:11:09.469Z,8.61
2023-05-08T00:12:09.453Z,8.78
2023-05-08T00:13:09.478Z,8.61
2023-05-08T00:14:09.451Z,8.78
2023-05-08T00:15:09.463Z,8.78
2023-05-08T00:17:09.510Z,8.61
2023-05-08T00:18:09.480Z,8.5
2023-05-08T00:19:09.463Z,8.39
2023-05-08T00:21:09.490Z,8.28
2023-05-08T00:23:09.493Z,8.28
2023-05-08T00:24:09.469Z,8.39
2023-05-08T00:25:09.471Z,8.39
2023-05-08T00:27:09.482Z,8.39
2023-05-08T00:28:09.470Z,8.5
2023-05-08T00:29:09.475Z,8.28
2023-05-08T00:30:09.649Z,8.5
2023-05-08T00:32:09.490Z,8.78
2023-05-08T00:33:09.590Z,8.61
2023-05-08T00:34:09.480Z,8.78
2023-05-08T00:35:09.480Z,8.78
2023-05-08T00:36:09.492Z,8.78
2023-05-08T00:37:09.494Z,8.78
2023-05-08T00:39:09.475Z,8.61
2023-05-08T00:40:09.541Z,8.61
2023-05-08T00:42:09.494Z,8.39
2023-05-08T00:44:09.475Z,8.61
2023-05-08T00:45:09.476Z,8.61
2023-05-08T00:46:09.493Z,8.61
2023-05-08T00:47:09.487Z,8.5
2023-05-08T00:49:09.486Z,8.5
2023-05-08T00:50:09.551Z,8.5
2023-05-08T00:51:09.545Z,8.78
2023-05-08T00:52:09.475Z,8.5
2023-05-08T00:53:09.513Z,8.78
2023-05-08T00:55:09.498Z,8.94
2023-05-08T00:56:09.481Z,8.94
2023-05-08T00:58:09.480Z,8.94
2023-05-08T00:59:09.484Z,8.78
2023-05-08T01:00:09.574Z,8.78
2023-05-08T01:01:09.494Z,8.61
2023-05-08T01:02:09.489Z,8.5
2023-05-08T01:03:09.691Z,8.61
2023-05-08T01:05:09.486Z,8.61
2023-05-08T01:06:09.484Z,8.39
2023-05-08T01:07:09.480Z,8.5
2023-05-08T01:08:09.491Z,8.39
2023-05-08T01:09:09.525Z,8.5
2023-05-08T01:11:09.490Z,8.39
2023-05-08T01:12:09.489Z,8.39
2023-05-08T01:14:09.487Z,8.5
2023-05-08T01:15:09.481Z,8.28
2023-05-08T01:16:09.529Z,8.28
2023-05-08T01:17:09.475Z,7.94
2023-05-08T01:18:09.483Z,7.94
2023-05-08T01:19:09.497Z,7.78
2023-05-08T01:20:09.487Z,7.94
2023-05-08T01:21:09.498Z,7.94
2023-05-08T01:22:09.515Z,7.94
2023-05-08T01:23:09.499Z,7.94
2023-05-08T01:24:09.506Z,7.94
2023-05-08T01:25:09.560Z,7.94
2023-05-08T01:27:09.512Z,7.78
2023-05-08T01:28:09.497Z,7.67
2023-05-08T01:29:09.521Z,7.94
2023-05-08T01:30:09.617Z,7.94
2023-05-08T01:31:09.520Z,7.94
2023-05-08T01:33:09.581Z,7.94
2023-05-08T01:34:09.660Z,7.94
2023-05-08T01:35:09.546Z,8.11
2023-05-08T01:37:09.523Z,7.94
2023-05-08T01:38:09.514Z,8.39
2023-05-08T01:39:09.544Z,8.39
2023-05-08T01:40:09.524Z,8.39
2023-05-08T01:41:09.563Z,8.39
2023-05-08T01:43:09.541Z,8.39
2023-05-08T01:44:09.547Z,8.28
2023-05-08T01:45:09.526Z,8.28
2023-05-08T01:46:09.588Z,7.78
2023-05-08T01:47:09.600Z,7.78
2023-05-08T01:48:09.643Z,7.94
2023-05-08T01:49:09.580Z,7.78
2023-05-08T01:50:09.697Z,7.67
2023-05-08T01:51:09.538Z,7.67
2023-05-08T01:52:09.550Z,7.39
2023-05-08T01:53:09.570Z,7.94
2023-05-08T01:54:10.393Z,7.78
2023-05-08T01:55:09.563Z,8.28
2023-05-08T01:57:09.583Z,8.11
2023-05-08T01:58:09.551Z,8.11
2023-05-08T01:59:09.554Z,7.94
2023-05-08T02:00:09.558Z,7.5
2023-05-08T02:01:09.661Z,7.78
2023-05-08T02:04:09.611Z,7.94
2023-05-08T02:05:09.623Z,7.94
2023-05-08T02:07:09.561Z,7.94
2023-05-08T02:09:09.568Z,7.78
2023-05-08T02:10:09.681Z,7.78
2023-05-08T02:11:09.566Z,7.94
2023-05-08T02:12:09.557Z,7.5
2023-05-08T02:13:09.789Z,7.94
2023-05-08T02:14:09.584Z,7.94
2023-05-08T02:15:09.573Z,7.78
2023-05-08T02:16:09.629Z,7.39
2023-05-08T02:17:09.564Z,7.39
2023-05-08T02:18:09.601Z,7.22
2023-05-08T02:20:09.605Z,7.5
2023-05-08T02:21:09.620Z,7.39
2023-05-08T02:22:09.589Z,7.22
2023-05-08T02:24:09.590Z,7.39
2023-05-08T02:25:09.577Z,7.5
2023-05-08T02:26:09.613Z,7.5
2023-05-08T02:27:09.575Z,7.39
2023-05-08T02:28:09.584Z,7.67
2023-05-08T02:29:09.654Z,7.5
2023-05-08T02:30:09.624Z,7.5
2023-05-08T02:31:09.620Z,7.5
2023-05-08T02:33:09.652Z,7.39
2023-05-08T02:35:09.610Z,7.22
2023-05-08T02:37:09.601Z,7.22
2023-05-08T02:38:09.601Z,7.22
2023-05-08T02:40:09.601Z,7.5
2023-05-08T02:41:09.608Z,7.39
2023-05-08T02:42:09.619Z,7.39
2023-05-08T02:44:09.608Z,7.5
2023-05-08T02:45:09.650Z,7.5
2023-05-08T02:47:09.613Z,7.11
2023-05-08T02:48:09.612Z,7.22
2023-05-08T02:49:09.611Z,6.94
2023-05-08T02:50:09.813Z,6.94
2023-05-08T02:51:09.618Z,7.11
2023-05-08T02:53:09.620Z,6.94
2023-05-08T02:54:09.625Z,6.94
2023-05-08T02:55:09.632Z,7.11
2023-05-08T02:57:09.623Z,6.94
2023-05-08T02:58:09.622Z,6.94
2023-05-08T02:59:09.635Z,7.11
2023-05-08T03:00:09.741Z,7.11
2023-05-08T03:01:09.668Z,7.11
2023-05-08T03:03:09.776Z,7.11
2023-05-08T03:04:09.640Z,7.11
2023-05-08T03:06:09.646Z,7.11
2023-05-08T03:07:09.642Z,6.94
2023-05-08T03:08:09.647Z,7.11
2023-05-08T03:10:09.636Z,6.94
2023-05-08T03:11:09.642Z,7.11
2023-05-08T03:12:09.629Z,7.5
2023-05-08T03:13:09.682Z,7.39
2023-05-08T03:14:09.652Z,7.5
2023-05-08T03:16:09.741Z,7.11
2023-05-08T03:17:09.666Z,7.39
2023-05-08T03:18:09.638Z,7.22
2023-05-08T03:19:09.653Z,7.5
2023-05-08T03:20:09.670Z,7.39
2023-05-08T03:22:09.659Z,6.94
2023-05-08T03:23:09.674Z,7.39
2023-05-08T03:25:09.638Z,7.11
2023-05-08T03:26:09.656Z,7.11
2023-05-08T03:27:09.668Z,7.11
2023-05-08T03:28:09.657Z,7.22
2023-05-08T03:29:09.653Z,7.11
2023-05-08T03:30:09.782Z,6.94
2023-05-08T03:31:09.694Z,7.11
2023-05-08T03:33:09.686Z,7.22
2023-05-08T03:35:09.693Z,7.5
2023-05-08T03:37:09.668Z,6.94
2023-05-08T03:39:09.680Z,7.11
2023-05-08T03:40:09.705Z,7.11
2023-05-08T03:41:09.663Z,6.94
2023-05-08T03:42:09.679Z,6.67
2023-05-08T03:44:09.677Z,6.78
2023-05-08T03:45:09.699Z,7.11
2023-05-08T03:47:09.738Z,7.5
2023-05-08T03:48:09.783Z,7.39
2023-05-08T03:49:09.701Z,7.5
2023-05-08T03:50:09.712Z,7.39
2023-05-08T03:51:09.685Z,6.94
2023-05-08T03:52:09.699Z,7.39
2023-05-08T03:54:09.677Z,7.39
2023-05-08T03:55:09.702Z,7.22
2023-05-08T03:57:09.706Z,7.22
2023-05-08T03:58:09.705Z,7.22
2023-05-08T03:59:09.704Z,7.11
2023-05-08T04:00:09.848Z,7.22
2023-05-08T04:02:09.748Z,7.22
2023-05-08T04:03:09.748Z,7.5
2023-05-08T04:04:09.759Z,7.5
2023-05-08T04:05:09.726Z,7.22
2023-05-08T04:07:09.704Z,7.5
2023-05-08T04:08:09.727Z,7.78
2023-05-08T04:09:09.708Z,7.94
2023-05-08T04:10:09.778Z,7.78
2023-05-08T04:12:09.717Z,7.94
2023-05-08T04:13:09.828Z,7.94
2023-05-08T04:14:09.731Z,7.94
2023-05-08T04:15:09.716Z,8.11
2023-05-08T04:16:09.826Z,7.94
2023-05-08T04:17:09.782Z,7.67
2023-05-08T04:18:09.746Z,7.5
2023-05-08T04:19:09.732Z,7.22
2023-05-08T04:20:09.724Z,7.39
2023-05-08T04:21:09.778Z,7.5
2023-05-08T04:23:09.743Z,7.5
2023-05-08T04:25:09.864Z,7.67
2023-05-08T04:26:09.735Z,7.39
2023-05-08T04:27:09.748Z,7.5
2023-05-08T04:29:09.739Z,7.5
2023-05-08T04:30:09.746Z,7.5
2023-05-08T04:31:09.732Z,7.67
2023-05-08T04:32:09.817Z,7.94
2023-05-08T04:33:09.840Z,7.39
2023-05-08T04:34:09.767Z,7.94
2023-05-08T04:35:09.754Z,7.94
2023-05-08T04:36:09.777Z,7.78
2023-05-08T04:37:09.771Z,7.78
2023-05-08T04:38:09.741Z,7.94
2023-05-08T04:39:09.761Z,7.78
2023-05-08T04:40:09.778Z,7.78
2023-05-08T04:41:09.788Z,7.5
2023-05-08T04:43:09.761Z,7.94
2023-05-08T04:45:09.988Z,7.94
2023-05-08T04:46:09.796Z,8.39
2023-05-08T04:48:09.768Z,8.39
2023-05-08T04:49:09.770Z,8.28
2023-05-08T04:50:09.802Z,7.94
2023-05-08T04:51:09.768Z,8.39
2023-05-08T04:52:09.759Z,8.28
2023-05-08T04:53:09.788Z,8.11
2023-05-08T04:55:10.129Z,8.61
2023-05-08T04:56:09.775Z,8.61
2023-05-08T04:57:09.758Z,8.78
2023-05-08T04:58:09.772Z,8.78
2023-05-08T05:00:09.770Z,8.39
2023-05-08T05:01:09.835Z,8.39
2023-05-08T05:02:09.848Z,8.61
2023-05-08T05:03:09.859Z,8.5
2023-05-08T05:04:09.788Z,8.5
2023-05-08T05:05:09.797Z,8.78
2023-05-08T05:06:09.769Z,8.94
2023-05-08T05:07:09.784Z,9.22
2023-05-08T05:09:09.795Z,8.78
2023-05-08T05:11:09.794Z,8.78
2023-05-08T05:12:09.783Z,8.78
2023-05-08T05:13:09.799Z,8.78
2023-05-08T05:14:09.782Z,8.94
2023-05-08T05:15:09.781Z,8.78
2023-05-08T05:17:09.785Z,8.78
2023-05-08T05:19:09.785Z,8.61
2023-05-08T05:20:09.772Z,8.5
2023-05-08T05:21:09.791Z,8.5
2023-05-08T05:23:09.793Z,9.22
2023-05-08T05:25:09.967Z,8.61
2023-05-08T05:26:09.794Z,8.61
2023-05-08T05:27:09.788Z,8.78
2023-05-08T05:29:09.799Z,8.78
2023-05-08T05:31:09.864Z,8.94
2023-05-08T05:32:09.792Z,9.22
2023-05-08T05:33:09.831Z,9.22
2023-05-08T05:35:09.935Z,8.94
2023-05-08T05:36:09.801Z,9.22
2023-05-08T05:38:09.818Z,8.78
2023-05-08T05:40:09.807Z,8.94
2023-05-08T05:41:09.828Z,8.78
2023-05-08T05:43:09.802Z,9.06
2023-05-08T05:45:09.829Z,9.22
2023-05-08T05:46:09.806Z,9.22
2023-05-08T05:47:10.037Z,9.39
2023-05-08T05:48:09.816Z,9.22
2023-05-08T05:49:09.807Z,9.22
2023-05-08T05:50:09.929Z,9.39
2023-05-08T05:51:09.799Z,9.67
2023-05-08T05:52:09.815Z,9.67
2023-05-08T05:53:09.796Z,9.67
2023-05-08T05:54:09.798Z,9.78
2023-05-08T05:55:09.805Z,10.11
2023-05-08T05:56:09.798Z,10.11
2023-05-08T05:57:09.820Z,10.11
2023-05-08T05:58:09.802Z,9.94
2023-05-08T05:59:09.802Z,10.11
2023-05-08T06:00:09.800Z,10.11
2023-05-08T06:01:09.802Z,10.11
2023-05-08T06:02:09.861Z,10.11
2023-05-08T06:04:09.877Z,10.56
2023-05-08T06:05:09.898Z,10.67
2023-05-08T06:07:09.820Z,11
2023-05-08T06:08:09.832Z,10.83
2023-05-08T06:09:09.812Z,10.67
2023-05-08T06:11:09.815Z,11
2023-05-08T06:12:09.817Z,11.28
2023-05-08T06:13:09.924Z,11.61
2023-05-08T06:14:09.812Z,11.72
2023-05-08T06:15:09.965Z,11.83
2023-05-08T06:16:09.888Z,11.72
2023-05-08T06:18:09.845Z,12.11
2023-05-08T06:19:09.812Z,12.28
2023-05-08T06:20:09.815Z,12.44
2023-05-08T06:22:09.820Z,12.28
2023-05-08T06:24:09.808Z,12.89
2023-05-08T06:25:10.057Z,13.17
2023-05-08T06:26:09.814Z,13.17
2023-05-08T06:27:09.820Z,13.5
2023-05-08T06:28:09.834Z,13.17
2023-05-08T06:29:09.834Z,12.44
2023-05-08T06:30:09.813Z,12.44
2023-05-08T06:31:09.854Z,13.06
2023-05-08T06:32:09.831Z,12.72
2023-05-08T06:33:09.829Z,13.06
2023-05-08T06:34:09.814Z,12.72
2023-05-08T06:36:09.831Z,12.89
2023-05-08T06:38:09.826Z,13.17
2023-05-08T06:39:09.815Z,13.17
2023-05-08T06:40:12.377Z,13.17
2023-05-08T06:41:09.819Z,12.72
2023-05-08T06:42:09.852Z,12.72
2023-05-08T06:43:09.822Z,13.06
2023-05-08T06:44:09.818Z,13.06
2023-05-08T06:45:09.947Z,12.89
2023-05-08T06:46:09.841Z,13.17
2023-05-08T06:47:09.829Z,13.78
2023-05-08T06:48:09.850Z,15.22
2023-05-08T06:49:09.835Z,17.94
2023-05-08T06:51:09.845Z,17.61
2023-05-08T06:53:09.837Z,14.06
2023-05-08T06:55:09.858Z,14.28
2023-05-08T06:56:09.841Z,14.56
2023-05-08T06:57:11.088Z,15.39
2023-05-08T06:58:09.843Z,15.89
2023-05-08T07:00:09.836Z,16.22
2023-05-08T07:01:09.951Z,15.56
2023-05-08T07:03:09.855Z,16.83
2023-05-08T07:05:10.063Z,18.11
2023-05-08T07:06:09.842Z,18.11
2023-05-08T07:08:09.840Z,16.06
2023-05-08T07:10:09.836Z,16.39
2023-05-08T07:11:09.842Z,16.39
2023-05-08T07:12:09.824Z,16.83
2023-05-08T07:13:09.899Z,16.22
2023-05-08T07:14:09.842Z,16.39
2023-05-08T07:16:09.874Z,17.28
2023-05-08T07:17:09.870Z,17.17
2023-05-08T07:19:09.849Z,18.78
2023-05-08T07:20:09.843Z,18.56
2023-05-08T07:22:09.972Z,16.83
2023-05-08T07:23:09.835Z,16.83
2023-05-08T07:24:09.853Z,16.39
2023-05-08T07:27:09.846Z,16.83
2023-05-08T07:28:09.847Z,17.17
2023-05-08T07:30:09.848Z,16.67
2023-05-08T07:32:09.839Z,15.39
2023-05-08T07:33:09.989Z,15.39
2023-05-08T07:34:09.834Z,16.39
2023-05-08T07:35:10.939Z,16.39
2023-05-08T07:36:09.844Z,16.39
2023-05-08T07:37:09.949Z,16.83
2023-05-08T07:38:09.854Z,16.83
2023-05-08T07:39:09.853Z,16.39
2023-05-08T07:41:09.974Z,15.89
2023-05-08T07:43:09.846Z,15.39
2023-05-08T07:46:09.848Z,16.06
2023-05-08T07:47:09.970Z,16.06
2023-05-08T07:48:09.896Z,15.22
2023-05-08T07:49:09.867Z,15.72
2023-05-08T07:50:09.843Z,15.39
2023-05-08T07:51:09.864Z,15.39
2023-05-08T07:52:09.845Z,15.06
2023-05-08T07:53:09.834Z,15.94
2023-05-08T07:54:09.849Z,15.44
2023-05-08T07:55:09.849Z,15.89
2023-05-08T07:57:09.840Z,16.06
2023-05-08T07:58:09.861Z,16.06
2023-05-08T08:00:09.862Z,15.44
2023-05-08T08:01:09.864Z,15.89
2023-05-08T08:02:09.962Z,16.39
2023-05-08T08:03:09.946Z,16.22
2023-05-08T08:04:09.928Z,16.89
2023-05-08T08:05:09.996Z,17.5
2023-05-08T08:07:09.870Z,17
2023-05-08T08:09:09.857Z,17.17
2023-05-08T08:10:09.901Z,17.17
2023-05-08T08:11:09.879Z,17.17
2023-05-08T08:12:09.867Z,17.5
2023-05-08T08:13:09.946Z,17.94
2023-05-08T08:14:09.867Z,18.44
2023-05-08T08:16:09.876Z,18.44
2023-05-08T08:18:09.901Z,18.28
2023-05-08T08:19:09.879Z,17.94
2023-05-08T08:21:09.987Z,16.56
2023-05-08T08:23:09.876Z,17
2023-05-08T08:24:09.872Z,17.67
2023-05-08T08:25:09.882Z,17.5
2023-05-08T08:26:09.872Z,17.67
2023-05-08T08:27:09.869Z,17.5
2023-05-08T08:29:09.884Z,17.5
2023-05-08T08:30:17.371Z,16.89
2023-05-08T08:31:09.951Z,16.89
2023-05-08T08:32:09.881Z,16.89
2023-05-08T08:33:09.922Z,17.33
2023-05-08T08:34:09.875Z,17.5
2023-05-08T08:35:09.895Z,17.5
2023-05-08T08:36:09.882Z,16.39
2023-05-08T08:37:09.993Z,17
2023-05-08T08:39:12.031Z,17.17
2023-05-08T08:40:09.908Z,17
2023-05-08T08:42:09.900Z,17
2023-05-08T08:43:09.906Z,17.5
2023-05-08T08:44:09.919Z,17.33
2023-05-08T08:45:09.922Z,17.67
2023-05-08T08:47:09.910Z,17.94
2023-05-08T08:49:09.911Z,18.28
2023-05-08T08:50:11.438Z,18.44
2023-05-08T08:51:09.919Z,17.94
2023-05-08T08:52:09.903Z,17.67
2023-05-08T08:53:10.049Z,17
2023-05-08T08:55:09.910Z,17
2023-05-08T08:56:09.919Z,17.33
2023-05-08T08:57:09.908Z,17.33
2023-05-08T08:58:09.932Z,17.5
2023-05-08T08:59:09.913Z,17.5
2023-05-08T09:00:09.913Z,18.28
2023-05-08T09:01:09.924Z,17.5
2023-05-08T09:02:09.995Z,17.5
2023-05-08T09:03:10.022Z,16.56
2023-05-08T09:04:10.073Z,16.89
2023-05-08T09:06:09.920Z,17.17
2023-05-08T09:07:09.944Z,17.5
2023-05-08T09:09:09.939Z,17.5
2023-05-08T09:11:09.917Z,17.5
2023-05-08T09:12:09.925Z,17.5
2023-05-08T09:13:09.948Z,17.67
2023-05-08T09:14:09.908Z,17.94
2023-05-08T09:15:09.981Z,17.83
2023-05-08T09:17:09.933Z,17.94
2023-05-08T09:18:09.992Z,17.5
2023-05-08T09:20:09.936Z,17.17
2023-05-08T09:21:09.944Z,18
2023-05-08T09:23:09.923Z,17.83
2023-05-08T09:24:09.937Z,17.33
2023-05-08T09:25:10.072Z,17.17
2023-05-08T09:27:09.925Z,17.83
2023-05-08T09:28:09.929Z,17.83
2023-05-08T09:29:09.950Z,17.17
2023-05-08T09:31:09.940Z,17
2023-05-08T09:32:09.958Z,17.33
2023-05-08T09:33:09.964Z,17
2023-05-08T09:34:09.939Z,18
2023-05-08T09:36:09.945Z,18.44
2023-05-08T09:38:09.948Z,18.17
2023-05-08T09:40:09.937Z,18
2023-05-08T09:41:10.097Z,18.78
2023-05-08T09:43:09.963Z,18.56
2023-05-08T09:44:09.948Z,18.94
2023-05-08T09:45:09.950Z,18.72
2023-05-08T09:46:09.966Z,18.67
2023-05-08T09:47:09.943Z,18.94
2023-05-08T09:48:10.004Z,19.33
2023-05-08T09:49:09.944Z,19.61
2023-05-08T09:50:09.954Z,18.67
2023-05-08T09:52:10.002Z,18.67
2023-05-08T09:53:09.952Z,19.11
2023-05-08T09:55:09.943Z,19.83
2023-05-08T09:56:09.960Z,20.22
2023-05-08T09:57:10.067Z,20.11
2023-05-08T09:59:09.986Z,20.11
2023-05-08T10:00:10.076Z,20.39
2023-05-08T10:01:10.033Z,19.83
2023-05-08T10:02:09.952Z,20.11
2023-05-08T10:03:09.985Z,20.22
2023-05-08T10:04:10.008Z,20.56
2023-05-08T10:05:09.992Z,19.61
2023-05-08T10:07:09.981Z,18.94
2023-05-08T10:09:09.964Z,19.11
2023-05-08T10:10:10.048Z,19.11
2023-05-08T10:11:09.972Z,19.61
2023-05-08T10:12:09.989Z,20.39
2023-05-08T10:13:10.171Z,20.39
2023-05-08T10:15:09.959Z,20.39
2023-05-08T10:16:09.976Z,19.83
2023-05-08T10:18:09.990Z,19.83
2023-05-08T10:19:09.972Z,20.56
2023-05-08T10:20:09.980Z,20.83
2023-05-08T10:21:09.973Z,20.39
2023-05-08T10:22:09.970Z,19.94
2023-05-08T10:23:09.982Z,19.44
2023-05-08T10:24:09.977Z,19.11
2023-05-08T10:25:10.002Z,18.83
2023-05-08T10:27:09.981Z,20.56
2023-05-08T10:28:10.012Z,19.61
2023-05-08T10:29:10.109Z,19.11
2023-05-08T10:31:09.998Z,18.83
2023-05-08T10:33:10.086Z,18.67
2023-05-08T10:35:09.981Z,18.5
2023-05-08T10:36:10.024Z,19.44
2023-05-08T10:37:09.975Z,19.44
2023-05-08T10:38:09.992Z,19.11
2023-05-08T10:39:09.976Z,18.33
2023-05-08T10:40:09.996Z,19.44
2023-05-08T10:42:09.998Z,20.11
2023-05-08T10:43:09.994Z,20.83
2023-05-08T10:45:10.131Z,20.72
2023-05-08T10:47:09.987Z,20.39
2023-05-08T10:48:10.030Z,18.94
2023-05-08T10:49:09.997Z,18.67
2023-05-08T10:50:09.982Z,18.67
2023-05-08T10:51:10.001Z,18.5
2023-05-08T10:52:09.986Z,19.11
2023-05-08T10:53:10.005Z,19.83
2023-05-08T10:54:09.996Z,19.61
2023-05-08T10:55:09.994Z,20.56
2023-05-08T10:56:09.986Z,21.56
2023-05-08T10:57:09.980Z,20.83
2023-05-08T10:58:10.039Z,20.83
2023-05-08T10:59:10.000Z,20.39
2023-05-08T11:01:10.024Z,19.33
2023-05-08T11:02:10.098Z,19.61
2023-05-08T11:03:17.073Z,20.11
2023-05-08T11:04:10.104Z,19.94
2023-05-08T11:05:09.998Z,19.83
2023-05-08T11:06:10.036Z,20.11
2023-05-08T11:07:09.999Z,19.61
2023-05-08T11:08:09.988Z,19.61
2023-05-08T11:09:10.002Z,19.11
2023-05-08T11:10:10.099Z,19.11
2023-05-08T11:11:10.020Z,19.61
2023-05-08T11:12:10.020Z,20.22
2023-05-08T11:13:10.046Z,20.56
2023-05-08T11:15:10.023Z,20.56
2023-05-08T11:16:10.060Z,20.39
2023-05-08T11:17:10.036Z,20.11
2023-05-08T11:19:10.009Z,20.11
2023-05-08T11:20:10.019Z,20.11
2023-05-08T11:22:10.035Z,20.11
2023-05-08T11:24:10.012Z,20.22
2023-05-08T11:26:10.016Z,19.61
2023-05-08T11:28:10.013Z,20.39
2023-05-08T11:29:10.018Z,20.56
2023-05-08T11:30:10.007Z,20.22
2023-05-08T11:32:10.030Z,20.56
2023-05-08T11:33:10.028Z,19.61
2023-05-08T11:34:09.994Z,19.11
2023-05-08T11:35:10.014Z,19.61
2023-05-08T11:36:10.005Z,19.61
2023-05-08T11:37:10.004Z,19.61
2023-05-08T11:38:10.010Z,19.44
2023-05-08T11:39:10.007Z,20.11
2023-05-08T11:40:10.029Z,20.11
2023-05-08T11:42:10.007Z,19.61
2023-05-08T11:43:10.018Z,19.61
2023-05-08T11:44:10.511Z,19.94
2023-05-08T11:45:10.062Z,20.39
2023-05-08T11:47:10.106Z,20.22
2023-05-08T11:49:10.057Z,19.61
2023-05-08T11:50:10.102Z,19.83
2023-05-08T11:51:10.038Z,19.44
2023-05-08T11:52:10.028Z,19.61
2023-05-08T11:53:10.029Z,19.33
2023-05-08T11:54:10.028Z,19.61
2023-05-08T11:55:10.049Z,19.61
2023-05-08T11:57:10.055Z,20.56
2023-05-08T11:58:10.039Z,21.06
2023-05-08T11:59:10.031Z,21.06
2023-05-08T12:00:10.098Z,20.56
2023-05-08T12:01:10.062Z,20.39
2023-05-08T12:03:10.112Z,20.72
2023-05-08T12:05:10.123Z,21.39
2023-05-08T12:06:10.038Z,21.56
2023-05-08T12:07:10.040Z,21.39
2023-05-08T12:08:10.062Z,20.56
2023-05-08T12:09:10.040Z,21.06
2023-05-08T12:10:10.084Z,20.83
2023-05-08T12:11:10.045Z,21.72
2023-05-08T12:13:10.106Z,21.06
2023-05-08T12:15:10.056Z,20.83
2023-05-08T12:16:10.044Z,20.22
2023-05-08T12:17:10.068Z,20.56
2023-05-08T12:18:10.149Z,21.06
2023-05-08T12:19:10.048Z,21.06
2023-05-08T12:20:10.071Z,21.06
2023-05-08T12:21:10.086Z,21.22
2023-05-08T12:23:10.061Z,21.72
2023-05-08T12:24:10.059Z,20.72
2023-05-08T12:25:10.066Z,20.56
2023-05-08T12:26:10.074Z,20.39
2023-05-08T12:28:10.081Z,21.06
2023-05-08T12:30:10.066Z,21.56
2023-05-08T12:31:10.147Z,21.06
2023-05-08T12:32:10.050Z,20.39
2023-05-08T12:33:10.097Z,20.72
2023-05-08T12:34:10.071Z,20.22
2023-05-08T12:36:10.051Z,20.17
2023-05-08T12:37:10.086Z,20.22
2023-05-08T12:38:10.065Z,20.72
2023-05-08T12:39:10.065Z,20.28
2023-05-08T12:40:10.068Z,20.28
2023-05-08T12:42:10.057Z,21.11
2023-05-08T12:43:10.081Z,20.44
2023-05-08T12:44:10.058Z,20.78
2023-05-08T12:45:10.068Z,20.39
2023-05-08T12:46:10.078Z,20.39
2023-05-08T12:47:10.082Z,20.28
2023-05-08T12:48:10.096Z,20.56
2023-05-08T12:49:10.088Z,20.28
2023-05-08T12:50:10.092Z,21.22
2023-05-08T12:51:10.085Z,20.56
2023-05-08T12:52:10.079Z,20.78
2023-05-08T12:53:10.214Z,20.78
2023-05-08T12:55:10.088Z,20.78
2023-05-08T12:56:10.073Z,20.89
2023-05-08T12:57:10.108Z,21.72
2023-05-08T12:59:10.088Z,20.89
2023-05-08T13:01:10.108Z,21.06
2023-05-08T13:02:10.099Z,21.06
2023-05-08T13:03:10.205Z,20.78
2023-05-08T13:05:10.112Z,20.78
2023-05-08T13:07:10.081Z,20.78
2023-05-08T13:08:10.076Z,20.39
2023-05-08T13:09:10.210Z,20.56
2023-05-08T13:11:10.109Z,20.28
2023-05-08T13:12:10.091Z,20.11
2023-05-08T13:13:10.119Z,19.33
2023-05-08T13:14:10.085Z,18.67
2023-05-08T13:15:10.090Z,18.33
2023-05-08T13:16:10.108Z,18.33
2023-05-08T13:17:10.101Z,18.22
2023-05-08T13:18:10.129Z,18
2023-05-08T13:20:10.161Z,18
2023-05-08T13:21:10.099Z,18.5
2023-05-08T13:22:10.096Z,18.33
2023-05-08T13:23:10.114Z,18.22
2023-05-08T13:25:10.408Z,18.22
2023-05-08T13:27:10.109Z,17.72
2023-05-08T13:28:10.183Z,18
2023-05-08T13:30:10.115Z,18.33
2023-05-08T13:31:10.116Z,18.33
2023-05-08T13:32:10.137Z,17.56
2023-05-08T13:33:10.151Z,17.72
2023-05-08T13:34:10.170Z,17.89
2023-05-08T13:36:10.119Z,17.39
2023-05-08T13:37:10.134Z,17.56
2023-05-08T13:38:10.104Z,17.39
2023-05-08T13:39:10.233Z,17.39
2023-05-08T13:41:10.232Z,17.22
2023-05-08T13:43:10.118Z,17.39
2023-05-08T13:45:10.126Z,17.22
2023-05-08T13:46:10.134Z,17.22
2023-05-08T13:47:10.125Z,17.72
2023-05-08T13:48:10.178Z,17.89
2023-05-08T13:49:10.234Z,17.39
2023-05-08T13:50:10.146Z,17.72
2023-05-08T13:52:10.138Z,17.89
2023-05-08T13:53:10.126Z,17.67
2023-05-08T13:54:10.133Z,17.39
2023-05-08T13:55:10.129Z,17.39
2023-05-08T13:57:10.273Z,16.89
2023-05-08T13:59:10.163Z,17.39
2023-05-08T14:00:10.171Z,17.22
2023-05-08T14:01:22.431Z,17.22
2023-05-08T14:02:10.281Z,17.39
2023-05-08T14:03:10.201Z,17.39
2023-05-08T14:04:10.216Z,17.67
2023-05-08T14:05:10.148Z,17.67
2023-05-08T14:06:10.133Z,17.22
2023-05-08T14:07:10.157Z,17.06
2023-05-08T14:08:10.130Z,16.89
2023-05-08T14:09:10.180Z,16.89
2023-05-08T14:10:10.130Z,16.44
2023-05-08T14:11:10.140Z,16.72
2023-05-08T14:12:10.151Z,16.72
2023-05-08T14:13:10.338Z,16.72
2023-05-08T14:15:10.152Z,16.56
2023-05-08T14:17:10.146Z,16.56
2023-05-08T14:18:10.201Z,16.72
2023-05-08T14:19:10.142Z,16.56
2023-05-08T14:21:10.156Z,16.89
2023-05-08T14:22:10.166Z,17.22
2023-05-08T14:24:10.154Z,17.06
2023-05-08T14:25:10.171Z,17.22
2023-05-08T14:26:10.149Z,17.22
2023-05-08T14:27:10.157Z,17.22
2023-05-08T14:28:10.145Z,17.39
2023-05-08T14:29:10.284Z,17.06
2023-05-08T14:31:10.177Z,16.44
2023-05-08T14:32:10.178Z,16.56
2023-05-08T14:33:10.171Z,16.72
2023-05-08T14:34:10.154Z,16.56
2023-05-08T14:35:10.160Z,17.06
2023-05-08T14:37:10.149Z,16.72
2023-05-08T14:38:10.164Z,16.72
2023-05-08T14:39:10.153Z,16.72
2023-05-08T14:40:10.163Z,16.56
2023-05-08T14:41:10.186Z,16.72
2023-05-08T14:43:10.150Z,16.44
2023-05-08T14:44:10.178Z,16.11
2023-05-08T14:45:10.342Z,16.28
2023-05-08T14:47:10.202Z,16.28
2023-05-08T14:48:10.180Z,16.44
2023-05-08T14:49:10.163Z,16.28
2023-05-08T14:50:10.155Z,16.28
2023-05-08T14:51:10.173Z,16.28
2023-05-08T14:53:10.244Z,16.28
2023-05-08T14:54:10.312Z,16.11
2023-05-08T14:55:10.327Z,16.28
2023-05-08T14:57:10.166Z,16.28
2023-05-08T14:58:10.190Z,16.28
2023-05-08T14:59:10.177Z,16.28
2023-05-08T15:01:10.341Z,16.56
2023-05-08T15:03:10.287Z,16.28
2023-05-08T15:04:10.214Z,16.44
2023-05-08T15:06:10.198Z,15.94
2023-05-08T15:07:10.180Z,15.83
2023-05-08T15:08:10.193Z,15.83
2023-05-08T15:09:10.183Z,16.28
2023-05-08T15:10:10.175Z,15.94
2023-05-08T15:11:10.203Z,16.11
2023-05-08T15:12:10.174Z,15.94
2023-05-08T15:13:10.198Z,16.11
2023-05-08T15:14:10.188Z,16.11
2023-05-08T15:15:10.189Z,16.28
2023-05-08T15:17:10.362Z,16.11
2023-05-08T15:19:10.220Z,16.28
2023-05-08T15:20:10.432Z,16.56
2023-05-08T15:21:10.199Z,16.28
2023-05-08T15:22:10.195Z,16.11
2023-05-08T15:24:10.199Z,16.28
2023-05-08T15:25:10.192Z,16.11
2023-05-08T15:26:10.186Z,16.28
2023-05-08T15:27:10.188Z,16.11
2023-05-08T15:29:10.197Z,16.28
2023-05-08T15:30:10.215Z,16.28
2023-05-08T15:32:10.227Z,15.94
2023-05-08T15:33:10.388Z,16.28
2023-05-08T15:35:10.207Z,15.94
2023-05-08T15:36:10.189Z,15.83
2023-05-08T15:37:10.195Z,15.78
2023-05-08T15:39:10.194Z,15.78
2023-05-08T15:40:10.197Z,15.61
2023-05-08T15:41:11.399Z,15.78
2023-05-08T15:42:10.242Z,15.61
2023-05-08T15:44:10.212Z,15.61
2023-05-08T15:45:10.223Z,15.28
2023-05-08T15:46:10.304Z,15.61
2023-05-08T15:47:10.201Z,15.17
2023-05-08T15:48:10.226Z,15.28
2023-05-08T15:49:10.335Z,15.28
2023-05-08T15:51:10.206Z,15.06
2023-05-08T15:52:10.200Z,15.06
2023-05-08T15:53:10.217Z,15.22
2023-05-08T15:55:10.262Z,14.78
2023-05-08T15:57:10.199Z,14.89
2023-05-08T15:58:10.212Z,14.78
2023-05-08T15:59:10.195Z,14.28
2023-05-08T16:00:10.209Z,14.28
2023-05-08T16:01:10.219Z,14.44
2023-05-08T16:02:10.270Z,14.83
2023-05-08T16:03:10.273Z,14.28
2023-05-08T16:04:10.213Z,14
2023-05-08T16:05:10.372Z,14
2023-05-08T16:07:10.214Z,14.28
2023-05-08T16:09:10.232Z,14.28
2023-05-08T16:11:10.240Z,14.28
2023-05-08T16:13:10.373Z,14.28
2023-05-08T16:14:10.220Z,14.28
2023-05-08T16:15:10.210Z,14.11
2023-05-08T16:16:10.338Z,14.28
2023-05-08T16:17:10.206Z,14.44
2023-05-08T16:18:10.258Z,14.28
2023-05-08T16:19:10.219Z,14.44
2023-05-08T16:20:10.200Z,14.28
2023-05-08T16:21:10.344Z,14.28
2023-05-08T16:23:10.225Z,14.28
2023-05-08T16:24:10.207Z,14.44
2023-05-08T16:25:10.397Z,14.28
2023-05-08T16:26:10.206Z,14.28
2023-05-08T16:27:10.219Z,14.28
2023-05-08T16:28:10.210Z,14.28
2023-05-08T16:29:10.216Z,14.28
2023-05-08T16:30:10.221Z,14.28
2023-05-08T16:31:10.231Z,14.11
2023-05-08T16:32:10.219Z,14.28
2023-05-08T16:33:10.212Z,14.28
2023-05-08T16:34:10.230Z,14.28